Puunene, Hawaii
Current Conditions -  °F | °C
As of 4:54 PM on Saturday 25 Oct 2014 (Local Time) from PHOG Reporting Station
Scattered Clouds Scattered Clouds  
Wind Chill: 82°   Ceiling: Unl
Heat Index: 85°   Visibility: 10mi
Dew Point: 68°   Wind: 18mph
Humidity: 62%   Direction: 60°ENE
Pressure: 29.94"   Gusts: 30mph
Location:  20.86°N, 156.45°W
Report Text: PHOG 260254Z 06016G26KT 10SM SCT040 SCT060 28/20 A2994 RMK AO2 PK WND 07026/0250 SLP144 T02780200 55000 $
Loading
Personal Weather Stations






























Interactive Weather Map
Tropical Storm Tracking
New forecast layout! Learn more

10-Day Weather Forecast

Advertisements
Track Severe Weather on mobile